Time;durP1;ratioP1;P1;durP2;ratioP2;P2;SDS_P1;SDS_P2;PMS_P1;PMS_P2;Temp;Humidity;BMP_temperature;BMP_pressure;BME280_temperature;BME280_humidity;BME280_pressure;Samples;Min_cycle;Max_cycle;Signal;HPM_P1;HPM_P2
2021/09/18 00:01:14;;;;;;;6.43;4.00;;;14.10;69.70;;;;;;5045719;28;20067;-40
2021/09/18 00:03:58;;;;;;;8.80;4.20;;;14.00;69.60;;;;;;5045457;28;20024;-40
2021/09/18 00:06:42;;;;;;;6.75;3.97;;;14.00;69.60;;;;;;5045827;28;20033;-40
2021/09/18 00:09:26;;;;;;;6.20;4.22;;;14.00;69.60;;;;;;5045472;28;20348;-40
2021/09/18 00:12:11;;;;;;;6.05;4.10;;;14.00;69.60;;;;;;5044405;28;20040;-40
2021/09/18 00:14:55;;;;;;;7.20;4.68;;;14.00;69.50;;;;;;5045704;28;20040;-40
2021/09/18 00:17:39;;;;;;;7.82;4.30;;;13.90;69.70;;;;;;5045722;28;20109;-40
2021/09/18 00:20:23;;;;;;;7.00;4.38;;;13.90;69.70;;;;;;5045038;28;20408;-40
2021/09/18 00:23:08;;;;;;;6.85;3.97;;;13.90;69.70;;;;;;5044935;28;20093;-40
2021/09/18 00:25:52;;;;;;;5.38;4.00;;;13.80;69.70;;;;;;5044803;28;20088;-40
2021/09/18 00:28:37;;;;;;;5.32;3.97;;;13.80;69.80;;;;;;5044827;28;20020;-40
2021/09/18 00:31:21;;;;;;;6.53;3.95;;;13.80;69.70;;;;;;5044836;28;20032;-40
2021/09/18 00:34:06;;;;;;;6.93;3.90;;;13.80;69.80;;;;;;5044770;28;20116;-40
2021/09/18 00:36:50;;;;;;;6.10;4.10;;;13.80;69.70;;;;;;5044670;28;20110;-40
2021/09/18 00:39:34;;;;;;;8.68;4.32;;;13.80;69.80;;;;;;5045042;28;20221;-40
2021/09/18 00:42:18;;;;;;;6.30;4.15;;;13.80;69.70;;;;;;5044743;28;20282;-40
2021/09/18 00:45:03;;;;;;;5.78;3.90;;;13.70;69.70;;;;;;5044742;28;20344;-40
2021/09/18 00:47:47;;;;;;;5.35;3.92;;;13.60;69.90;;;;;;5045015;28;20091;-40
2021/09/18 00:50:31;;;;;;;5.80;3.58;;;13.60;69.90;;;;;;5044433;28;20079;-40
2021/09/18 00:53:15;;;;;;;4.47;3.72;;;13.70;69.70;;;;;;5044439;28;20056;-39
2021/09/18 00:56:00;;;;;;;6.97;3.80;;;13.70;69.50;;;;;;5044637;28;20266;-40
2021/09/18 00:58:44;;;;;;;6.13;3.60;;;13.60;69.70;;;;;;5043276;28;20064;-40
2021/09/18 01:01:28;;;;;;;6.13;3.53;;;13.60;69.80;;;;;;5044444;28;20024;-40
2021/09/18 01:04:12;;;;;;;8.20;3.88;;;13.50;69.90;;;;;;5044331;28;20051;-40
2021/09/18 01:06:56;;;;;;;4.80;3.60;;;13.50;69.80;;;;;;5044091;28;20252;-40
2021/09/18 01:09:41;;;;;;;9.18;3.45;;;13.60;69.60;;;;;;5044621;28;20052;-40
2021/09/18 01:12:25;;;;;;;6.35;3.50;;;13.60;69.60;;;;;;5043331;28;20076;-40
2021/09/18 01:15:09;;;;;;;6.53;3.75;;;13.60;69.70;;;;;;5044723;28;20036;-40
2021/09/18 01:17:55;;;;;;;5.88;3.50;;;13.50;69.80;;;;;;5044473;28;20059;-40
2021/09/18 01:20:41;;;;;;;6.72;3.72;;;13.50;69.80;;;;;;5043433;28;20060;-40
2021/09/18 01:23:25;;;;;;;6.57;3.90;;;13.40;69.70;;;;;;5044237;28;20209;-40
2021/09/18 01:26:09;;;;;;;4.25;3.40;;;13.50;69.70;;;;;;5043863;28;20056;-40
2021/09/18 01:28:54;;;;;;;5.25;3.90;;;13.50;69.60;;;;;;5043973;28;20228;-40
2021/09/18 01:31:42;;;;;;;5.78;3.17;;;13.40;69.60;;;;;;5043790;28;20091;-40
2021/09/18 01:34:29;;;;;;;7.10;3.88;;;13.40;69.70;;;;;;5043737;28;20098;-40
2021/09/18 01:37:14;;;;;;;6.60;3.63;;;13.40;69.80;;;;;;5043756;28;20392;-40
2021/09/18 01:39:58;;;;;;;10.00;3.75;;;13.30;69.70;;;;;;5043648;28;20223;-40
2021/09/18 01:42:43;;;;;;;5.38;3.38;;;13.30;69.60;;;;;;5044084;28;20348;-39
2021/09/18 01:45:28;;;;;;;5.85;3.80;;;13.30;69.60;;;;;;5043776;28;20076;-40
2021/09/18 01:48:13;;;;;;;5.93;3.47;;;13.30;69.50;;;;;;5043733;28;20255;-40
2021/09/18 01:50:59;;;;;;;5.25;3.67;;;13.30;69.60;;;;;;5044064;28;20079;-40
2021/09/18 01:53:43;;;;;;;7.53;3.47;;;13.30;69.60;;;;;;5043937;28;20028;-40
2021/09/18 01:56:28;;;;;;;7.47;3.70;;;13.30;69.50;;;;;;5029046;28;20037;-40
2021/09/18 01:59:12;;;;;;;6.50;3.35;;;13.30;69.60;;;;;;5043710;28;20036;-40
2021/09/18 02:01:56;;;;;;;5.38;4.05;;;13.30;69.60;;;;;;5043716;28;20406;-40
2021/09/18 02:04:40;;;;;;;4.82;3.35;;;13.30;69.40;;;;;;5043414;28;20031;-39
2021/09/18 02:07:25;;;;;;;6.25;3.42;;;13.20;69.60;;;;;;5043571;28;20260;-40
2021/09/18 02:10:11;;;;;;;6.88;3.28;;;13.20;69.60;;;;;;5043510;28;20336;-40
2021/09/18 02:12:56;;;;;;;7.25;3.30;;;13.20;69.70;;;;;;5043420;28;20052;-40
2021/09/18 02:15:41;;;;;;;4.63;2.90;;;13.20;69.60;;;;;;5043835;28;20063;-40
2021/09/18 02:18:24;;;;;;;6.15;3.30;;;13.20;69.60;;;;;;5043612;28;20120;-40
2021/09/18 02:21:09;;;;;;;5.57;3.17;;;13.10;69.70;;;;;;5047468;28;20032;-39
2021/09/18 02:23:53;;;;;;;5.43;3.40;;;13.10;69.70;;;;;;5047538;28;20037;-40
2021/09/18 02:26:37;;;;;;;6.22;3.38;;;13.10;69.60;;;;;;5046254;28;20045;-40
2021/09/18 02:29:21;;;;;;;5.80;3.10;;;13.10;69.50;;;;;;5047457;28;20068;-40
2021/09/18 02:32:06;;;;;;;3.47;2.67;;;13.10;69.40;;;;;;5047134;28;20152;-40
2021/09/18 02:34:50;;;;;;;3.65;3.00;;;13.00;69.50;;;;;;5047036;28;20028;-40
2021/09/18 02:37:34;;;;;;;3.70;2.83;;;13.00;69.40;;;;;;5046940;28;20379;-40
2021/09/18 02:40:19;;;;;;;4.13;2.80;;;13.00;69.30;;;;;;5047221;28;20040;-39
2021/09/18 02:43:03;;;;;;;7.88;3.10;;;12.90;69.40;;;;;;5046931;28;20093;-40
2021/09/18 02:49:29;;;;;;;4.00;2.88;;;12.90;69.40;;;;;;5047286;28;20048;-39
2021/09/18 02:52:13;;;;;;;5.57;3.00;;;12.90;69.60;;;;;;5046760;28;20049;-39
2021/09/18 02:54:58;;;;;;;3.63;2.80;;;12.90;69.40;;;;;;5046627;28;20056;-40
2021/09/18 02:57:43;;;;;;;6.20;2.90;;;12.90;69.40;;;;;;5046993;28;20067;-40
2021/09/18 03:00:27;;;;;;;7.22;3.55;;;12.90;69.60;;;;;;5046770;28;20140;-40
2021/09/18 03:03:11;;;;;;;4.03;2.80;;;12.90;69.50;;;;;;5046619;28;20135;-39
2021/09/18 03:05:56;;;;;;;4.30;3.00;;;12.90;69.50;;;;;;5047070;28;20436;-39
2021/09/18 03:08:40;;;;;;;5.03;2.72;;;12.90;69.50;;;;;;5046895;28;20028;-39
2021/09/18 03:11:25;;;;;;;6.50;2.80;;;12.90;69.50;;;;;;5046421;28;20059;-40
2021/09/18 03:14:09;;;;;;;5.93;2.97;;;12.80;69.60;;;;;;5046858;28;20032;-39
2021/09/18 03:16:53;;;;;;;3.38;2.38;;;12.80;69.50;;;;;;5046582;28;20036;-40
2021/09/18 03:19:38;;;;;;;8.48;3.10;;;12.80;69.60;;;;;;5046374;28;20217;-39
2021/09/18 03:22:22;;;;;;;5.55;3.15;;;12.80;69.70;;;;;;5046294;28;20052;-40
2021/09/18 03:25:07;;;;;;;4.68;2.70;;;12.80;69.60;;;;;;5046001;28;20044;-39
2021/09/18 03:27:51;;;;;;;5.88;2.95;;;12.80;69.70;;;;;;5046045;28;20106;-39
2021/09/18 03:30:35;;;;;;;7.43;2.95;;;12.80;69.70;;;;;;5045143;28;20299;-39
2021/09/18 03:33:19;;;;;;;5.70;2.80;;;12.80;69.80;;;;;;5046230;28;20040;-39
2021/09/18 03:36:04;;;;;;;5.60;3.00;;;12.80;69.80;;;;;;5046096;28;20066;-39
2021/09/18 03:38:49;;;;;;;5.22;2.90;;;12.80;69.70;;;;;;5045786;28;20036;-39
2021/09/18 03:41:33;;;;;;;4.75;2.75;;;12.80;69.70;;;;;;5044955;28;20033;-39
2021/09/18 03:44:17;;;;;;;4.75;2.50;;;12.80;69.70;;;;;;5045746;28;20162;-40
2021/09/18 03:47:01;;;;;;;5.10;3.03;;;12.70;69.60;;;;;;5045625;28;20075;-40
2021/09/18 03:49:45;;;;;;;4.75;2.67;;;12.70;69.50;;;;;;5045905;28;20040;-40
2021/09/18 03:52:30;;;;;;;4.00;2.65;;;12.70;69.50;;;;;;5045576;28;20063;-40
2021/09/18 03:55:14;;;;;;;5.40;2.47;;;12.70;69.50;;;;;;5045631;28;20368;-39
2021/09/18 03:57:58;;;;;;;5.55;3.10;;;12.70;69.50;;;;;;5045426;28;20210;-40
2021/09/18 04:00:43;;;;;;;3.95;3.08;;;12.60;69.70;;;;;;5045895;28;20097;-40
2021/09/18 04:03:27;;;;;;;2.88;2.47;;;12.70;69.50;;;;;;5045488;28;20075;-39
2021/09/18 04:06:11;;;;;;;4.15;2.95;;;12.70;69.60;;;;;;5045500;28;20087;-40
2021/09/18 04:08:55;;;;;;;8.73;2.70;;;12.70;69.60;;;;;;5045773;28;20039;-40
2021/09/18 04:11:39;;;;;;;3.38;2.55;;;12.60;69.50;;;;;;5045746;28;20480;-39
2021/09/18 04:14:24;;;;;;;3.53;2.78;;;12.60;69.50;;;;;;5045388;28;20036;-39
2021/09/18 04:17:08;;;;;;;4.10;2.70;;;12.60;69.50;;;;;;5045137;28;20395;-40
2021/09/18 04:19:52;;;;;;;3.65;2.67;;;12.60;69.50;;;;;;5045405;28;20144;-40
2021/09/18 04:22:37;;;;;;;4.13;2.60;;;12.60;69.60;;;;;;5045254;28;20044;-40
2021/09/18 04:25:21;;;;;;;3.60;2.50;;;12.60;69.40;;;;;;5044943;28;20055;-39
2021/09/18 04:28:05;;;;;;;5.22;2.88;;;12.60;69.30;;;;;;5045011;28;20036;-39
2021/09/18 04:30:49;;;;;;;3.33;2.40;;;12.60;69.40;;;;;;5044814;28;20036;-40
2021/09/18 04:33:34;;;;;;;4.28;2.75;;;12.60;69.30;;;;;;5045199;28;20047;-39
2021/09/18 04:36:18;;;;;;;3.53;2.60;;;12.50;69.50;;;;;;5029884;28;20056;-40
2021/09/18 04:39:02;;;;;;;3.63;2.65;;;12.50;69.50;;;;;;5044748;28;20039;-40
2021/09/18 04:41:46;;;;;;;6.18;2.60;;;12.50;69.60;;;;;;5044760;28;20132;-40
2021/09/18 04:44:31;;;;;;;3.83;2.80;;;12.50;69.70;;;;;;5044529;28;20080;-39
2021/09/18 04:47:15;;;;;;;4.45;2.40;;;12.40;69.80;;;;;;5044562;28;20067;-40
2021/09/18 04:49:59;;;;;;;3.80;2.60;;;12.40;69.90;;;;;;5044561;28;20355;-39
2021/09/18 04:52:43;;;;;;;4.10;2.85;;;12.40;69.90;;;;;;5044458;28;20253;-40
2021/09/18 04:55:27;;;;;;;5.03;3.00;;;12.40;69.90;;;;;;5044370;28;20024;-40
2021/09/18 04:58:12;;;;;;;3.83;2.75;;;12.40;69.90;;;;;;5044325;28;20047;-40
2021/09/18 05:00:57;;;;;;;5.45;2.95;;;12.40;69.90;;;;;;5044265;28;20100;-40
2021/09/18 05:03:40;;;;;;;4.13;2.72;;;12.50;69.90;;;;;;5044735;28;20037;-40
2021/09/18 05:06:24;;;;;;;4.82;2.85;;;12.40;69.90;;;;;;5044421;28;20048;-41
2021/09/18 05:09:09;;;;;;;3.97;2.60;;;12.50;69.80;;;;;;5044322;28;20040;-41
2021/09/18 05:11:54;;;;;;;5.07;2.25;;;12.40;69.90;;;;;;5043190;28;20033;-41
2021/09/18 05:14:38;;;;;;;3.40;2.70;;;12.40;69.90;;;;;;5044046;28;20217;-40
2021/09/18 05:17:22;;;;;;;4.25;2.78;;;12.40;69.90;;;;;;5044068;28;20033;-40
2021/09/18 05:20:08;;;;;;;5.13;2.65;;;12.40;70.00;;;;;;5044287;28;20108;-41
2021/09/18 05:22:52;;;;;;;4.15;2.50;;;12.40;70.10;;;;;;5043869;28;20049;-41
2021/09/18 05:25:36;;;;;;;8.00;3.13;;;12.40;70.20;;;;;;5043882;28;20055;-40
2021/09/18 05:28:21;;;;;;;3.95;2.60;;;12.40;70.00;;;;;;5043951;28;20244;-41
2021/09/18 05:31:05;;;;;;;4.63;2.47;;;12.50;70.10;;;;;;5043901;28;20071;-39
2021/09/18 05:33:49;;;;;;;3.55;2.67;;;12.40;70.20;;;;;;5043727;28;20037;-40
2021/09/18 05:36:33;;;;;;;4.40;2.55;;;12.50;70.20;;;;;;5044522;28;20125;-39
2021/09/18 05:39:17;;;;;;;7.68;2.63;;;12.40;70.30;;;;;;5043755;28;20336;-40
2021/09/18 05:42:02;;;;;;;3.45;2.78;;;12.50;70.50;;;;;;5043694;28;20032;-40
2021/09/18 05:44:46;;;;;;;4.75;2.63;;;12.50;70.50;;;;;;5044080;28;20029;-39
2021/09/18 05:47:30;;;;;;;5.60;2.80;;;12.60;70.50;;;;;;5043985;28;20079;-39
2021/09/18 05:50:15;;;;;;;3.70;2.60;;;12.60;70.40;;;;;;5043855;28;20064;-40
2021/09/18 05:52:59;;;;;;;4.53;3.05;;;12.60;70.40;;;;;;5043419;28;20028;-40
2021/09/18 05:55:43;;;;;;;7.15;3.00;;;12.60;70.80;;;;;;5042530;28;20096;-40
2021/09/18 05:58:27;;;;;;;3.90;2.97;;;12.70;70.90;;;;;;5043358;28;20060;-40
2021/09/18 06:01:12;;;;;;;4.90;2.83;;;12.70;71.20;;;;;;5043420;28;20032;-40
2021/09/18 06:03:56;;;;;;;4.18;3.03;;;12.80;71.30;;;;;;5043431;28;20032;-40
2021/09/18 06:06:40;;;;;;;4.55;3.13;;;12.80;71.60;;;;;;5044620;28;20029;-40
2021/09/18 06:09:24;;;;;;;7.93;3.10;;;12.90;71.80;;;;;;5043567;28;20268;-40
2021/09/18 06:12:08;;;;;;;4.28;2.80;;;13.00;71.90;;;;;;5043453;28;20068;-40
2021/09/18 06:14:53;;;;;;;4.72;2.88;;;13.00;71.90;;;;;;5043733;28;20033;-40
2021/09/18 06:17:37;;;;;;;6.72;2.97;;;13.10;72.10;;;;;;5043502;28;20060;-40
2021/09/18 06:20:21;;;;;;;4.18;3.03;;;13.30;72.30;;;;;;5043485;28;20044;-40
2021/09/18 06:23:06;;;;;;;7.32;3.30;;;13.40;72.20;;;;;;5043508;28;20032;-40
2021/09/18 06:25:50;;;;;;;5.60;2.85;;;13.60;72.10;;;;;;5043285;28;20052;-40
2021/09/18 06:28:34;;;;;;;5.88;3.72;;;13.80;72.00;;;;;;5043327;28;20039;-40
2021/09/18 06:31:19;;;;;;;4.47;3.22;;;13.90;71.90;;;;;;5043298;28;20028;-40
2021/09/18 06:34:03;;;;;;;6.07;2.90;;;14.40;71.60;;;;;;5043177;28;20032;-40
2021/09/18 06:36:48;;;;;;;7.38;3.45;;;14.70;70.90;;;;;;5043044;28;20252;-41
2021/09/18 06:39:33;;;;;;;7.53;3.80;;;15.30;69.30;;;;;;5043416;28;20360;-41
2021/09/18 06:42:17;;;;;;;5.43;3.40;;;16.40;66.50;;;;;;5043231;28;20084;-40
2021/09/18 06:45:01;;;;;;;4.63;2.95;;;17.30;63.40;;;;;;5043610;28;20040;-40
2021/09/18 06:47:46;;;;;;;6.85;3.42;;;18.40;60.80;;;;;;5042952;28;20029;-41
2021/09/18 06:50:30;;;;;;;6.38;3.40;;;19.30;58.50;;;;;;5042987;28;20212;-41
2021/09/18 06:53:14;;;;;;;5.25;2.80;;;20.10;56.60;;;;;;5043001;28;20032;-41
2021/09/18 06:55:58;;;;;;;4.03;2.83;;;20.80;54.90;;;;;;5043237;28;20063;-40
2021/09/18 06:58:43;;;;;;;8.05;3.17;;;21.30;53.40;;;;;;5042844;28;20035;-41
2021/09/18 07:01:27;;;;;;;7.75;3.05;;;21.10;54.60;;;;;;5042871;28;20385;-40
2021/09/18 07:04:12;;;;;;;5.78;3.20;;;21.00;55.60;;;;;;5041606;28;20072;-41
2021/09/18 07:06:56;;;;;;;4.93;2.90;;;21.00;56.00;;;;;;5046360;28;20037;-41
2021/09/18 07:09:40;;;;;;;7.68;2.97;;;21.70;54.40;;;;;;5046890;28;20044;-41
2021/09/18 07:12:24;;;;;;;4.95;2.80;;;21.80;54.00;;;;;;5045543;28;20076;-41
2021/09/18 07:15:08;;;;;;;14.13;5.78;;;21.80;54.90;;;;;;5046500;28;20036;-41
2021/09/18 07:17:53;;;;;;;19.13;8.23;;;21.70;55.30;;;;;;5046591;28;20135;-41
2021/09/18 07:20:37;;;;;;;14.13;6.43;;;21.90;55.00;;;;;;5046349;28;20066;-42
2021/09/18 07:23:21;;;;;;;33.35;11.65;;;22.50;53.60;;;;;;5045949;28;20086;-41
2021/09/18 07:26:06;;;;;;;8.07;3.55;;;22.80;52.80;;;;;;5045011;28;20041;-43
2021/09/18 07:28:50;;;;;;;9.65;3.80;;;22.80;52.90;;;;;;5046316;28;20273;-42
2021/09/18 07:31:34;;;;;;;9.95;4.03;;;23.10;52.50;;;;;;5046222;28;20063;-42
2021/09/18 07:34:18;;;;;;;13.75;4.13;;;23.10;52.50;;;;;;5046008;28;20044;-41
2021/09/18 07:37:03;;;;;;;6.60;3.60;;;23.60;52.30;;;;;;5046039;28;20252;-41
2021/09/18 07:43:28;;;;;;;3.90;3.15;;;24.50;54.00;;;;;;5046283;28;20064;-43
2021/09/18 07:46:12;;;;;;;5.28;3.50;;;25.30;51.90;;;;;;5045831;28;20201;-42
2021/09/18 07:48:57;;;;;;;6.72;4.40;;;25.70;51.80;;;;;;5045698;28;20032;-42
2021/09/18 07:51:41;;;;;;;7.07;4.30;;;26.00;49.10;;;;;;5046098;28;20136;-42
2021/09/18 07:54:25;;;;;;;5.57;4.10;;;26.40;48.00;;;;;;5045685;28;20344;-42
2021/09/18 07:57:10;;;;;;;5.68;3.78;;;26.70;46.90;;;;;;5045594;28;20078;-42
2021/09/18 07:59:54;;;;;;;5.07;3.40;;;27.00;45.70;;;;;;5045258;28;20076;-43
2021/09/18 08:02:39;;;;;;;5.45;3.38;;;27.50;43.90;;;;;;5045433;28;20101;-42
2021/09/18 08:05:23;;;;;;;5.30;4.03;;;27.70;43.40;;;;;;5045306;28;20075;-42
2021/09/18 08:08:07;;;;;;;5.18;3.47;;;27.50;43.00;;;;;;5045386;28;20356;-42
2021/09/18 08:10:51;;;;;;;5.53;3.53;;;27.50;43.00;;;;;;5045471;28;20249;-42
2021/09/18 08:13:36;;;;;;;6.55;3.88;;;27.70;42.80;;;;;;5045301;28;20048;-42
2021/09/18 08:16:20;;;;;;;4.93;3.53;;;27.50;42.50;;;;;;5044353;28;20072;-42
2021/09/18 08:19:04;;;;;;;6.40;3.40;;;26.90;43.30;;;;;;5045041;28;20055;-42
2021/09/18 08:21:49;;;;;;;6.20;4.50;;;26.50;44.00;;;;;;5045011;28;20209;-45
2021/09/18 08:24:34;;;;;;;4.30;3.63;;;26.00;44.40;;;;;;5045236;28;20112;-44
2021/09/18 08:27:18;;;;;;;4.70;3.80;;;25.60;44.80;;;;;;5045129;28;20041;-41
2021/09/18 08:30:03;;;;;;;10.65;4.07;;;25.30;46.00;;;;;;5044887;28;20036;-42
2021/09/18 08:32:48;;;;;;;5.32;3.55;;;24.80;46.50;;;;;;5045511;28;20094;-42
2021/09/18 08:35:32;;;;;;;6.85;4.00;;;24.40;47.10;;;;;;5045239;28;20037;-42
2021/09/18 08:38:18;;;;;;;5.93;3.90;;;24.20;48.20;;;;;;5044793;28;20253;-41
2021/09/18 08:41:02;;;;;;;5.50;3.97;;;23.80;49.00;;;;;;5044932;28;20088;-42
2021/09/18 08:43:46;;;;;;;6.72;4.70;;;23.70;49.40;;;;;;5044976;28;20075;-43
2021/09/18 08:46:30;;;;;;;6.50;3.90;;;23.50;49.60;;;;;;5044621;28;20340;-42
2021/09/18 08:49:15;;;;;;;6.57;4.38;;;23.30;49.70;;;;;;5044306;28;20141;-43
2021/09/18 08:52:00;;;;;;;7.88;4.85;;;23.20;50.30;;;;;;5044487;28;20025;-43
2021/09/18 08:54:44;;;;;;;6.63;4.50;;;23.00;50.70;;;;;;5045126;28;20097;-43
2021/09/18 08:57:28;;;;;;;6.30;4.55;;;22.90;51.20;;;;;;5044501;28;20221;-44
2021/09/18 09:00:40;;;;;;;5.88;3.88;;;22.70;49.30;;;;;;5044497;28;20080;-43
2021/09/18 09:03:35;;;;;;;7.78;4.60;;;22.60;48.80;;;;;;5044334;28;20036;-43
2021/09/18 09:06:19;;;;;;;5.25;3.95;;;22.70;51.50;;;;;;5044872;28;20036;-43
2021/09/18 09:09:03;;;;;;;7.28;4.13;;;22.70;49.80;;;;;;5044253;28;20087;-43
2021/09/18 09:11:49;;;;;;;6.85;3.80;;;22.70;50.50;;;;;;5044580;28;20036;-44
2021/09/18 09:14:43;;;;;;;5.38;3.78;;;22.70;50.60;;;;;;5044449;28;20040;-43
2021/09/18 09:17:30;;;;;;;7.70;4.10;;;22.80;51.30;;;;;;5042985;28;20221;-42
2021/09/18 09:20:23;;;;;;;7.43;3.90;;;22.80;50.20;;;;;;5043807;28;20237;-43
2021/09/18 09:23:14;;;;;;;7.47;4.18;;;22.90;50.70;;;;;;5043150;28;20036;-43
2021/09/18 09:25:59;;;;;;;6.93;3.65;;;22.80;48.40;;;;;;5044028;28;20087;-43
2021/09/18 09:28:43;;;;;;;7.32;3.40;;;22.80;48.20;;;;;;5043649;28;20079;-43
2021/09/18 09:31:28;;;;;;;6.05;3.42;;;22.80;50.30;;;;;;5043952;28;20051;-43
2021/09/18 09:34:14;;;;;;;7.07;3.85;;;22.80;48.30;;;;;;5043652;28;20029;-44
2021/09/18 09:37:00;;;;;;;4.55;3.53;;;22.80;49.60;;;;;;5042735;28;20037;-43
2021/09/18 09:43:12;;;;;;;4.75;3.40;;;23.00;49.10;;;;;;5028842;28;20059;-43
2021/09/18 09:45:56;;;;;;;5.00;3.28;;;23.20;49.30;;;;;;5043443;28;20225;-44
2021/09/18 09:48:40;;;;;;;5.30;3.20;;;23.20;49.50;;;;;;5043883;28;20103;-47
2021/09/18 09:51:25;;;;;;;4.28;2.60;;;23.30;50.20;;;;;;5043650;28;20052;-45
2021/09/18 09:54:24;;;;;;;6.35;2.67;;;23.30;50.80;;;;;;5043638;28;20040;-45
2021/09/18 09:57:12;;;;;;;6.18;2.92;;;23.40;50.20;;;;;;5043555;28;20356;-44
2021/09/18 10:00:00;;;;;;;4.55;2.90;;;23.50;49.50;;;;;;5043651;28;20040;-43
2021/09/18 10:02:44;;;;;;;6.72;2.70;;;23.50;49.60;;;;;;5043333;28;20037;-43
2021/09/18 10:05:29;;;;;;;4.57;3.13;;;23.60;49.70;;;;;;5043337;28;20036;-41
2021/09/18 10:08:13;;;;;;;3.90;2.70;;;23.70;47.40;;;;;;5043305;28;20095;-43
2021/09/18 10:10:57;;;;;;;3.67;2.60;;;23.70;46.20;;;;;;5043452;28;20032;-41
2021/09/18 10:13:42;;;;;;;3.50;2.65;;;23.80;47.70;;;;;;5028928;28;20090;-41
2021/09/18 10:16:28;;;;;;;3.88;2.75;;;23.90;45.90;;;;;;5042470;28;20147;-42
2021/09/18 10:19:13;;;;;;;4.10;2.20;;;23.90;45.10;;;;;;5042325;28;20033;-41
2021/09/18 10:25:01;;;;;;;3.55;2.50;;;24.10;47.40;;;;;;5030905;28;20152;-41
2021/09/18 10:31:26;;;;;;;4.03;3.03;;;24.30;47.10;;;;;;5043749;28;20339;-43
2021/09/18 10:34:30;;;;;;;3.22;2.17;;;24.40;47.00;;;;;;5043271;28;20099;-43
2021/09/18 10:37:34;;;;;;;6.38;2.03;;;24.50;46.10;;;;;;5043346;28;20033;-45
2021/09/18 10:40:18;;;;;;;3.92;2.58;;;24.60;45.00;;;;;;5044818;28;20335;-45
2021/09/18 10:43:02;;;;;;;5.05;2.90;;;24.70;45.80;;;;;;5046267;28;20075;-47
2021/09/18 10:49:34;;;;;;;2.90;2.30;;;24.80;43.20;;;;;;5047229;28;20044;-47
2021/09/18 10:52:29;;;;;;;6.55;2.70;;;24.80;45.30;;;;;;5045913;28;20080;-45
2021/09/18 10:55:13;;;;;;;3.95;2.22;;;24.70;42.10;;;;;;5046692;28;20033;-45
2021/09/18 10:57:57;;;;;;;5.40;2.25;;;24.70;42.70;;;;;;5045709;28;20032;-47
2021/09/18 11:00:43;;;;;;;3.08;2.38;;;24.80;43.80;;;;;;5047001;28;20117;-46
2021/09/18 11:03:35;;;;;;;4.28;2.83;;;25.00;45.40;;;;;;5046678;28;20037;-45
2021/09/18 11:06:36;;;;;;;4.05;3.00;;;25.00;42.20;;;;;;5046605;28;20041;-45
2021/09/18 11:09:47;;;;;;;3.65;2.45;;;25.10;45.00;;;;;;5046586;28;20148;-46
2021/09/18 11:12:31;;;;;;;4.93;2.75;;;25.20;42.30;;;;;;5046378;28;20416;-45
2021/09/18 11:15:15;;;;;;;3.78;2.55;;;25.30;43.60;;;;;;5046513;28;20076;-46
2021/09/18 11:17:59;;;;;;;6.07;2.38;;;25.30;40.90;;;;;;5046605;28;20099;-46
2021/09/18 11:20:44;;;;;;;3.80;2.20;;;25.40;42.20;;;;;;5031817;28;20044;-48
2021/09/18 11:23:32;;;;;;;3.92;2.55;;;25.40;42.00;;;;;;5046408;28;20032;-47
2021/09/18 11:26:39;;;;;;;3.22;2.10;;;25.40;41.80;;;;;;5046201;28;20075;-45
2021/09/18 11:29:36;;;;;;;6.72;2.80;;;25.40;43.30;;;;;;5046515;28;20068;-44
2021/09/18 11:32:25;;;;;;;4.72;2.67;;;25.40;42.70;;;;;;5046259;28;20045;-44
2021/09/18 11:35:09;;;;;;;6.00;2.03;;;25.30;42.20;;;;;;5045279;28;20354;-45
2021/09/18 11:37:53;;;;;;;3.20;1.50;;;25.00;40.70;;;;;;5046029;28;20056;-44
2021/09/18 11:40:38;;;;;;;4.18;2.10;;;24.90;41.70;;;;;;5031284;28;20209;-43
2021/09/18 11:43:26;;;;;;;4.28;1.80;;;24.80;42.40;;;;;;5045685;28;20066;-46
2021/09/18 11:46:10;;;;;;;2.15;1.48;;;24.70;41.40;;;;;;5045951;28;20213;-42
2021/09/18 11:48:58;;;;;;;4.90;1.90;;;24.50;42.90;;;;;;5045840;28;20114;-43
2021/09/18 11:51:42;;;;;;;2.50;1.65;;;24.40;43.20;;;;;;5044897;28;20048;-42
2021/09/18 11:54:26;;;;;;;2.97;2.00;;;24.30;42.50;;;;;;5045745;28;20036;-44
2021/09/18 11:57:17;;;;;;;2.85;1.77;;;24.40;43.70;;;;;;5045688;28;20072;-42
2021/09/18 12:00:12;;;;;;;4.93;2.60;;;24.60;43.50;;;;;;5045391;28;20394;-42
2021/09/18 12:02:57;;;;;;;3.00;2.25;;;24.70;42.50;;;;;;5046094;28;20033;-42
2021/09/18 12:05:42;;;;;;;3.08;2.15;;;24.80;43.70;;;;;;5045385;28;20076;-42
2021/09/18 12:08:30;;;;;;;3.10;1.90;;;24.80;42.40;;;;;;5045238;28;20056;-43
2021/09/18 12:11:17;;;;;;;3.63;2.20;;;24.80;40.90;;;;;;5044329;28;20036;-42
2021/09/18 12:14:01;;;;;;;3.03;1.95;;;24.90;41.10;;;;;;5045060;28;20051;-42
2021/09/18 12:16:45;;;;;;;2.85;2.03;;;24.90;39.90;;;;;;5045011;28;20277;-42
2021/09/18 12:19:29;;;;;;;2.38;1.58;;;25.00;40.00;;;;;;5044940;28;20028;-42
2021/09/18 12:22:14;;;;;;;2.95;1.90;;;25.00;39.10;;;;;;5043920;28;20394;-42
2021/09/18 12:24:58;;;;;;;2.22;1.63;;;25.00;39.30;;;;;;5044609;28;20245;-43
2021/09/18 12:27:42;;;;;;;3.17;1.50;;;25.10;41.00;;;;;;5045411;28;20028;-43
2021/09/18 12:30:37;;;;;;;2.92;1.70;;;25.20;40.90;;;;;;5045100;28;20079;-41
2021/09/18 12:33:33;;;;;;;2.70;1.70;;;25.20;40.50;;;;;;5045059;28;20063;-42
2021/09/18 12:36:19;;;;;;;1.77;1.40;;;25.10;41.00;;;;;;5044848;28;20120;-41
2021/09/18 12:39:06;;;;;;;2.30;1.58;;;25.10;39.90;;;;;;5044844;28;20356;-42
2021/09/18 12:41:50;;;;;;;4.05;1.70;;;24.90;39.30;;;;;;5044762;28;20071;-42
2021/09/18 12:44:38;;;;;;;6.25;1.63;;;24.80;40.00;;;;;;5030701;28;20056;-42
2021/09/18 12:47:23;;;;;;;3.55;1.70;;;24.60;40.50;;;;;;5044892;28;20067;-42
2021/09/18 12:50:18;;;;;;;2.83;1.65;;;24.60;40.30;;;;;;5043778;28;20398;-43
2021/09/18 12:53:19;;;;;;;2.30;1.58;;;24.40;39.40;;;;;;5044955;28;20032;-42
2021/09/18 12:56:31;;;;;;;3.20;1.63;;;24.30;41.20;;;;;;5044329;28;20039;-42
2021/09/18 12:59:21;;;;;;;1.98;1.58;;;24.10;42.30;;;;;;5044443;28;20367;-41
2021/09/18 13:02:05;;;;;;;2.90;1.77;;;24.00;41.50;;;;;;5044182;28;20035;-42
2021/09/18 13:04:52;;;;;;;2.72;1.70;;;24.00;42.10;;;;;;5044544;28;20382;-42
2021/09/18 13:07:36;;;;;;;3.60;1.50;;;23.80;43.10;;;;;;5044374;28;20166;-42
2021/09/18 13:10:24;;;;;;;2.13;1.45;;;23.70;43.30;;;;;;5043169;28;20127;-42
2021/09/18 13:13:08;;;;;;;2.47;1.52;;;23.60;44.10;;;;;;5044151;28;20029;-42
2021/09/18 13:16:00;;;;;;;1.70;1.38;;;23.60;44.80;;;;;;5043860;28;20044;-43
2021/09/18 13:18:59;;;;;;;3.80;1.55;;;23.80;45.20;;;;;;5043735;28;20064;-42
2021/09/18 13:21:43;;;;;;;4.35;1.70;;;23.80;44.40;;;;;;5043699;28;20021;-43
2021/09/18 13:24:27;;;;;;;2.25;1.58;;;23.80;43.20;;;;;;5043570;28;20416;-43
2021/09/18 13:27:11;;;;;;;3.65;1.27;;;24.00;44.40;;;;;;5043977;28;20036;-42
2021/09/18 13:29:56;;;;;;;5.18;1.40;;;24.00;44.00;;;;;;5044498;28;20097;-42
2021/09/18 13:32:40;;;;;;;3.35;1.55;;;24.10;44.50;;;;;;5044707;28;20048;-42
2021/09/18 13:35:24;;;;;;;2.40;1.50;;;24.00;43.20;;;;;;5044553;28;20255;-42
2021/09/18 13:38:09;;;;;;;2.47;1.52;;;24.00;42.20;;;;;;5043962;28;20036;-42
2021/09/18 13:40:53;;;;;;;2.50;1.50;;;24.00;42.40;;;;;;5043929;28;20036;-43
2021/09/18 13:43:37;;;;;;;2.33;1.60;;;24.00;41.40;;;;;;5043582;28;20080;-43
2021/09/18 13:46:22;;;;;;;3.03;1.55;;;24.00;42.50;;;;;;5043647;28;20032;-45
2021/09/18 13:49:06;;;;;;;2.72;1.60;;;24.00;43.30;;;;;;5043609;28;20075;-45
2021/09/18 13:51:50;;;;;;;4.28;1.50;;;24.00;42.20;;;;;;5043930;28;20072;-44
2021/09/18 13:54:35;;;;;;;2.33;1.40;;;24.00;42.40;;;;;;5043960;28;20408;-44
2021/09/18 13:57:19;;;;;;;2.22;1.50;;;24.10;43.60;;;;;;5043705;28;20225;-42
2021/09/18 14:00:04;;;;;;;3.15;1.40;;;24.00;41.90;;;;;;5043538;28;20041;-42
2021/09/18 14:02:48;;;;;;;3.08;1.90;;;24.00;41.20;;;;;;5043668;28;20036;-44
2021/09/18 14:05:32;;;;;;;2.00;1.50;;;24.10;41.20;;;;;;5043688;28;20216;-43
2021/09/18 14:08:17;;;;;;;3.70;1.48;;;24.10;41.10;;;;;;5043621;28;20036;-42
2021/09/18 14:11:01;;;;;;;3.72;1.52;;;24.20;42.40;;;;;;5043631;28;20067;-41
2021/09/18 14:13:45;;;;;;;1.52;1.08;;;24.00;41.50;;;;;;5043522;28;20087;-41
2021/09/18 14:16:29;;;;;;;2.45;1.30;;;24.10;42.80;;;;;;5047074;28;20355;-41
2021/09/18 14:19:15;;;;;;;2.03;1.30;;;24.10;43.60;;;;;;5047387;28;20051;-41
2021/09/18 14:21:59;;;;;;;3.42;1.50;;;24.00;41.90;;;;;;5047273;28;20070;-42
2021/09/18 14:24:43;;;;;;;3.20;1.70;;;24.00;42.50;;;;;;5046053;28;20045;-43
2021/09/18 14:27:28;;;;;;;2.45;1.70;;;23.80;43.20;;;;;;5047833;28;20355;-43
2021/09/18 14:30:12;;;;;;;2.30;1.55;;;23.70;43.30;;;;;;5047450;28;20040;-44
2021/09/18 14:32:56;;;;;;;5.00;1.75;;;23.60;44.30;;;;;;5047604;28;20099;-43
2021/09/18 14:35:40;;;;;;;2.92;1.60;;;23.40;43.60;;;;;;5047192;28;20090;-43
2021/09/18 14:38:25;;;;;;;2.00;1.45;;;23.40;42.90;;;;;;5046945;28;20095;-43
2021/09/18 14:41:09;;;;;;;4.10;1.45;;;23.50;42.40;;;;;;5047035;28;20393;-45